createdAt,value
2023-01-19T04:53:47.728Z,-1.50
2023-01-19T04:55:55.635Z,-1.50
2023-01-19T04:58:00.265Z,-1.30
2023-01-19T05:00:22.486Z,-1.20
2023-01-19T05:02:26.457Z,-1.10
2023-01-19T05:04:30.656Z,-1.10
2023-01-19T05:06:33.878Z,-1.10
2023-01-19T05:08:36.499Z,-1.10
2023-01-19T05:10:39.226Z,-1.20
2023-01-19T05:12:42.556Z,-1.20
2023-01-19T05:14:45.319Z,-1.20
2023-01-19T05:16:48.038Z,-1.20
2023-01-19T05:18:50.797Z,-1.30
2023-01-19T05:20:53.342Z,-1.30
2023-01-19T05:22:55.936Z,-1.30
2023-01-19T05:24:58.785Z,-1.30
2023-01-19T05:27:01.376Z,-1.40
2023-01-19T05:29:04.246Z,-1.30
2023-01-19T05:31:06.937Z,-1.40
2023-01-19T05:33:09.597Z,-1.40
2023-01-19T05:35:13.915Z,-1.40
2023-01-19T05:37:17.548Z,-1.30
2023-01-19T05:39:21.476Z,-1.50
2023-01-19T05:41:24.076Z,-1.40
2023-01-19T05:43:27.332Z,-1.80
2023-01-19T05:45:31.016Z,-1.70
2023-01-19T05:47:35.426Z,-1.60
2023-01-19T05:49:58.426Z,-1.60
2023-01-19T05:52:04.259Z,-1.60
2023-01-19T05:54:10.746Z,-1.50
2023-01-19T05:56:14.937Z,-1.50
2023-01-19T05:58:19.568Z,-1.30
2023-01-19T06:00:24.016Z,-1.30
2023-01-19T06:02:30.484Z,-1.40
2023-01-19T06:04:34.596Z,-1.40
2023-01-19T06:06:38.966Z,-1.40
2023-01-19T06:08:43.556Z,-1.40
2023-01-19T06:10:47.391Z,-1.40
2023-01-19T06:12:51.748Z,-1.30
2023-01-19T06:14:55.096Z,-1.40
2023-01-19T06:16:59.572Z,-1.40
2023-01-19T06:19:04.481Z,-1.50
2023-01-19T06:21:11.481Z,-1.50
2023-01-19T06:23:15.884Z,-1.60
2023-01-19T06:25:20.932Z,-1.60
2023-01-19T06:27:26.061Z,-1.50
2023-01-19T06:29:30.076Z,-1.50
2023-01-19T06:31:35.387Z,-1.40
2023-01-19T06:33:46.638Z,-1.50
2023-01-19T06:35:53.970Z,-1.50
2023-01-19T06:37:59.573Z,-1.40
2023-01-19T06:40:04.216Z,-1.40
2023-01-19T06:42:08.231Z,-1.40
2023-01-19T06:44:12.116Z,-1.40
2023-01-19T06:46:17.163Z,-1.40
2023-01-19T06:48:21.116Z,-1.40
2023-01-19T06:50:25.480Z,-1.30
2023-01-19T06:52:30.073Z,-1.00
2023-01-19T06:54:33.957Z,-1.20
2023-01-19T06:56:37.827Z,-1.30
2023-01-19T06:58:43.689Z,-1.30
2023-01-19T07:00:48.034Z,-1.20
2023-01-19T07:02:53.788Z,-1.20
2023-01-19T07:05:03.094Z,-1.10
2023-01-19T07:07:07.078Z,-1.00
2023-01-19T07:09:16.954Z,-0.90
2023-01-19T07:11:24.921Z,-0.80
2023-01-19T07:13:36.110Z,-0.80
2023-01-19T07:15:40.150Z,-0.70
2023-01-19T07:17:44.811Z,-0.60
2023-01-19T07:19:49.747Z,-0.50
2023-01-19T07:21:54.387Z,-0.40
2023-01-19T07:26:27.438Z,-0.30
2023-01-19T07:28:33.681Z,-0.20
2023-01-19T07:30:39.037Z,-0.20
2023-01-19T07:32:44.857Z,-0.10
2023-01-19T07:34:51.010Z,0.00
2023-01-19T07:37:02.391Z,0.00
2023-01-19T07:39:07.178Z,0.10
2023-01-19T07:41:13.952Z,0.10
2023-01-19T07:43:19.379Z,0.10
2023-01-19T07:45:24.148Z,0.20
2023-01-19T07:47:42.047Z,0.30
2023-01-19T07:49:58.597Z,0.30
2023-01-19T07:52:03.590Z,0.40
2023-01-19T07:54:11.349Z,0.50
2023-01-19T07:56:16.297Z,0.50
2023-01-19T07:58:38.237Z,0.50
2023-01-19T08:00:42.848Z,0.60
2023-01-19T08:02:46.817Z,0.70
2023-01-19T08:04:50.716Z,0.80
2023-01-19T08:06:55.528Z,0.90
2023-01-19T08:09:00.977Z,0.90
2023-01-19T08:11:04.949Z,0.80
2023-01-19T08:13:09.512Z,0.80
2023-01-19T08:15:14.806Z,0.80
2023-01-19T08:17:21.676Z,0.80
2023-01-19T08:19:26.836Z,0.90
2023-01-19T08:21:31.918Z,1.00
2023-01-19T08:23:36.487Z,1.00
2023-01-19T08:25:54.737Z,1.10
2023-01-19T08:28:00.624Z,1.10
2023-01-19T08:30:05.782Z,1.20
2023-01-19T08:32:11.000Z,1.20
2023-01-19T08:34:15.477Z,1.30
2023-01-19T08:36:20.011Z,1.40
2023-01-19T08:38:28.477Z,1.50
2023-01-19T08:40:38.189Z,1.60
2023-01-19T08:42:42.558Z,1.60
2023-01-19T08:44:57.511Z,1.70
2023-01-19T08:47:03.005Z,1.70
2023-01-19T08:49:06.900Z,1.80
2023-01-19T08:51:11.826Z,1.90
2023-01-19T08:53:16.563Z,1.90
2023-01-19T08:55:21.113Z,2.00
2023-01-19T08:57:26.104Z,2.10
2023-01-19T08:59:31.174Z,2.00
2023-01-19T09:01:36.362Z,1.90
2023-01-19T09:03:41.696Z,1.90
2023-01-19T09:05:46.036Z,1.90
2023-01-19T09:07:50.650Z,1.90
2023-01-19T09:09:54.501Z,2.00
2023-01-19T09:11:58.430Z,2.20
2023-01-19T09:14:03.385Z,2.30
2023-01-19T09:16:10.511Z,2.30
2023-01-19T09:18:23.269Z,2.40
2023-01-19T09:20:27.796Z,2.40
2023-01-19T09:22:32.867Z,2.50
2023-01-19T09:24:36.699Z,2.40
2023-01-19T09:26:42.797Z,2.50
2023-01-19T09:28:46.611Z,2.50
2023-01-19T09:30:50.637Z,2.40
2023-01-19T09:33:08.117Z,2.20
2023-01-19T09:35:14.777Z,2.00
2023-01-19T09:37:19.137Z,1.90
2023-01-19T09:39:23.577Z,1.90
2023-01-19T09:41:27.977Z,1.80
2023-01-19T09:43:45.116Z,1.80
2023-01-19T09:46:00.921Z,1.80
2023-01-19T09:48:10.863Z,1.90
2023-01-19T09:50:49.972Z,2.20
2023-01-19T09:53:19.147Z,2.50
2023-01-19T09:55:28.449Z,2.90
2023-01-19T09:57:34.447Z,3.00
2023-01-19T09:59:38.937Z,3.30
2023-01-19T10:02:14.546Z,3.40
2023-01-19T10:04:33.809Z,3.40
2023-01-19T10:06:38.077Z,3.40
2023-01-19T10:09:08.557Z,3.30
2023-01-19T10:11:52.701Z,3.10
2023-01-19T10:13:58.869Z,3.00
2023-01-19T10:16:24.272Z,2.70
2023-01-19T10:18:37.787Z,2.70
2023-01-19T10:20:52.099Z,2.80
2023-01-19T10:23:03.385Z,2.80
2023-01-19T10:25:19.015Z,2.90
2023-01-19T10:27:30.592Z,2.80
2023-01-19T10:29:39.926Z,2.90
2023-01-19T10:31:47.860Z,3.10
2023-01-19T10:33:57.370Z,3.10
2023-01-19T10:36:01.756Z,3.20
2023-01-19T10:38:07.684Z,3.40
2023-01-19T10:40:14.959Z,3.40
2023-01-19T10:42:21.467Z,3.40
2023-01-19T10:44:31.380Z,3.60
2023-01-19T10:46:45.947Z,3.60
2023-01-19T10:48:57.370Z,3.60
2023-01-19T10:51:08.512Z,3.70
2023-01-19T10:53:28.870Z,3.80
2023-01-19T10:55:39.667Z,3.80
2023-01-19T10:57:44.968Z,3.50
2023-01-19T10:59:53.767Z,3.30
2023-01-19T11:02:20.099Z,3.90
2023-01-19T11:04:33.020Z,3.00
2023-01-19T11:06:37.775Z,2.80
2023-01-19T11:08:43.048Z,2.70
2023-01-19T11:10:56.327Z,2.80
2023-01-19T11:13:38.266Z,2.90
2023-01-19T11:16:00.228Z,3.10
2023-01-19T11:18:31.486Z,3.20
2023-01-19T11:20:49.466Z,3.40
2023-01-19T11:23:16.858Z,3.40
2023-01-19T11:25:29.887Z,3.40
2023-01-19T11:27:38.623Z,3.30
2023-01-19T11:29:48.327Z,3.40
2023-01-19T11:31:53.416Z,3.50
2023-01-19T11:33:59.887Z,3.40
2023-01-19T11:36:09.526Z,3.30
2023-01-19T11:38:24.717Z,3.30
2023-01-19T11:40:29.098Z,3.30
2023-01-19T11:42:40.616Z,3.40
2023-01-19T11:45:00.911Z,3.40
2023-01-19T11:47:07.685Z,3.30
2023-01-19T11:49:24.252Z,3.30
2023-01-19T11:51:36.424Z,3.20
2023-01-19T11:53:41.180Z,3.20
2023-01-19T11:55:54.267Z,3.00
2023-01-19T11:57:58.446Z,2.90
2023-01-19T12:00:26.002Z,3.00
2023-01-19T12:02:34.783Z,3.00
2023-01-19T12:04:44.241Z,3.00
2023-01-19T12:06:58.727Z,3.10
2023-01-19T12:09:12.637Z,3.20
2023-01-19T12:11:33.737Z,3.10
2023-01-19T12:13:38.197Z,3.00
2023-01-19T12:15:46.116Z,3.00
2023-01-19T12:17:54.546Z,2.90
2023-01-19T12:20:29.416Z,3.00
2023-01-19T12:22:38.756Z,3.00
2023-01-19T12:24:54.846Z,2.90
2023-01-19T12:27:01.396Z,2.90
2023-01-19T12:29:17.026Z,2.80
2023-01-19T12:31:26.443Z,2.80
2023-01-19T12:33:48.267Z,3.00
2023-01-19T12:36:27.266Z,3.10
2023-01-19T12:38:46.047Z,2.90
2023-01-19T12:40:50.358Z,3.20
2023-01-19T12:43:08.616Z,3.20
2023-01-19T12:45:27.287Z,3.10
2023-01-19T12:47:33.388Z,3.40
2023-01-19T12:50:16.646Z,3.00
2023-01-19T12:53:01.478Z,3.30
2023-01-19T12:55:28.416Z,3.60
2023-01-19T12:57:35.157Z,3.40
2023-01-19T12:59:41.418Z,3.50
2023-01-19T18:14:49.217Z,1.40
2023-01-19T18:16:52.500Z,1.30
2023-01-19T18:18:58.368Z,1.30
2023-01-19T18:21:04.180Z,1.40
2023-01-19T18:23:10.265Z,1.50
2023-01-19T18:25:17.971Z,1.50
2023-01-19T18:27:24.067Z,1.50
2023-01-19T18:29:29.090Z,1.60
2023-01-19T18:31:33.531Z,1.60
2023-01-19T18:33:37.208Z,1.60
2023-01-19T18:35:45.657Z,1.60
2023-01-19T18:37:50.247Z,1.60
2023-01-19T18:39:56.057Z,1.70
2023-01-19T18:41:59.805Z,1.70
2023-01-19T18:44:12.642Z,1.60
2023-01-19T18:46:19.626Z,1.70
2023-01-19T18:48:26.316Z,1.70
2023-01-19T18:50:31.297Z,1.70
2023-01-19T18:52:36.426Z,1.70
2023-01-19T18:54:40.267Z,1.80
2023-01-19T18:56:45.795Z,1.80
2023-01-19T18:58:50.189Z,1.80
2023-01-19T19:00:55.119Z,1.90
2023-01-19T19:03:01.592Z,1.90
2023-01-19T19:05:06.336Z,1.80
2023-01-19T19:07:12.597Z,1.80
2023-01-19T19:09:17.211Z,1.80
2023-01-19T19:11:23.155Z,1.80
2023-01-19T19:13:27.187Z,1.80
2023-01-19T19:15:30.689Z,1.80
2023-01-19T19:17:37.554Z,1.70
2023-01-19T19:19:41.388Z,1.80
2023-01-19T19:21:45.336Z,1.20
2023-01-19T19:24:06.987Z,1.80
2023-01-19T19:26:15.678Z,2.30
2023-01-19T19:28:22.277Z,1.80
2023-01-19T19:30:26.663Z,1.80
2023-01-19T19:32:31.599Z,1.80
2023-01-19T19:34:35.397Z,1.90
2023-01-19T19:36:39.113Z,1.90
2023-01-19T19:38:45.067Z,1.80
2023-01-19T19:40:48.789Z,2.00
2023-01-19T19:42:52.587Z,2.00
2023-01-19T19:44:56.638Z,2.00
2023-01-19T19:47:00.388Z,2.00
2023-01-19T19:49:05.327Z,2.10
2023-01-19T19:51:18.445Z,2.20
2023-01-19T19:53:23.746Z,2.30
2023-01-19T19:55:27.572Z,2.30
2023-01-19T19:57:31.920Z,2.30
2023-01-19T19:59:36.219Z,2.30
2023-01-19T20:01:40.280Z,2.50
2023-01-19T20:03:45.562Z,2.60
2023-01-19T20:05:49.907Z,2.60
2023-01-19T20:07:54.217Z,2.70
2023-01-19T20:09:57.978Z,2.60
2023-01-19T20:12:07.007Z,2.70
2023-01-19T20:14:30.818Z,2.70
2023-01-19T20:16:37.778Z,3.00
2023-01-19T20:18:46.617Z,2.70
2023-01-19T20:20:50.793Z,2.80
2023-01-19T20:22:56.828Z,2.70
2023-01-19T20:25:04.955Z,2.70
2023-01-19T20:27:07.776Z,2.80
2023-01-19T20:29:11.437Z,2.80
2023-01-19T20:31:24.119Z,2.70
2023-01-19T20:33:33.607Z,2.70
2023-01-19T20:35:40.316Z,2.60
2023-01-19T20:37:44.727Z,2.60
2023-01-19T20:39:48.045Z,2.60
2023-01-19T20:41:51.458Z,2.70
2023-01-19T20:43:54.816Z,2.60
2023-01-19T20:45:58.784Z,2.70
2023-01-19T20:48:01.356Z,2.60
2023-01-19T20:50:06.916Z,2.70
2023-01-19T20:52:09.786Z,2.70
2023-01-19T20:54:15.326Z,2.80
2023-01-19T20:56:18.337Z,2.80
2023-01-19T20:58:21.719Z,2.90
2023-01-19T21:00:25.446Z,3.00
2023-01-19T21:02:30.529Z,3.00
2023-01-19T21:04:33.280Z,3.00
2023-01-19T21:06:36.197Z,3.00
2023-01-19T21:08:44.520Z,3.00
2023-01-19T21:10:47.206Z,3.00
2023-01-19T21:12:49.817Z,3.00
2023-01-19T21:14:52.505Z,2.90
2023-01-19T21:16:58.604Z,2.50
2023-01-19T21:19:01.497Z,3.60
2023-01-19T21:21:04.104Z,3.00
2023-01-19T21:23:06.324Z,2.90
2023-01-19T21:25:09.555Z,2.90
2023-01-19T21:27:12.555Z,2.70
2023-01-19T21:29:14.999Z,2.90
2023-01-19T21:31:17.844Z,2.90
2023-01-19T21:33:21.422Z,2.90
2023-01-19T21:35:23.765Z,2.90
2023-01-19T21:37:26.415Z,3.00
2023-01-19T21:39:29.295Z,3.10
2023-01-19T21:41:34.708Z,2.90
2023-01-19T21:43:39.460Z,2.70
2023-01-19T21:45:43.185Z,2.50
2023-01-19T21:47:45.787Z,2.50
2023-01-19T21:49:48.743Z,2.40
2023-01-19T21:51:51.912Z,2.40
2023-01-19T21:53:59.913Z,2.30
2023-01-19T21:56:02.998Z,2.30
2023-01-19T21:58:06.160Z,2.30
2023-01-19T22:00:10.658Z,2.20
2023-01-19T22:02:14.427Z,2.10
2023-01-19T22:04:17.759Z,2.10
2023-01-19T22:06:20.540Z,2.10
2023-01-19T22:08:24.567Z,2.10
2023-01-19T22:10:27.126Z,2.00
2023-01-19T22:12:29.721Z,2.00
2023-01-19T22:14:32.475Z,2.00
2023-01-19T22:16:35.370Z,1.90
2023-01-19T22:18:39.672Z,1.90
2023-01-19T22:20:42.380Z,1.90
2023-01-19T22:22:45.191Z,1.90
2023-01-19T22:24:51.225Z,1.80
2023-01-19T22:26:53.748Z,1.90
2023-01-19T22:29:01.196Z,1.90
2023-01-19T22:31:12.924Z,1.90
2023-01-19T22:33:16.525Z,1.90
2023-01-19T22:35:19.523Z,1.90
2023-01-19T22:37:22.394Z,1.80
2023-01-19T22:39:24.774Z,1.80
